createdAt,value
2019-05-14T00:00:00.646Z,56.37
2019-05-14T00:02:26.975Z,56.62
2019-05-14T00:04:53.305Z,56.80
2019-05-14T00:07:22.109Z,56.09
2019-05-14T00:09:48.142Z,55.53
2019-05-14T00:12:14.462Z,55.44
2019-05-14T00:14:43.817Z,55.68
2019-05-14T00:17:11.347Z,54.66
2019-05-14T00:19:37.818Z,53.99
2019-05-14T00:22:04.162Z,53.65
2019-05-14T00:24:32.339Z,53.71
2019-05-14T00:26:58.859Z,53.86
2019-05-14T00:29:25.191Z,53.42
2019-05-14T00:31:51.793Z,53.14
2019-05-14T00:34:18.321Z,52.68
2019-05-14T00:36:44.764Z,52.46
2019-05-14T00:39:11.387Z,52.87
2019-05-14T00:41:43.918Z,52.77
2019-05-14T00:44:10.334Z,53.05
2019-05-14T00:46:36.665Z,53.47
2019-05-14T00:49:04.059Z,53.77
2019-05-14T00:51:31.808Z,53.89
2019-05-14T00:53:58.453Z,53.47
2019-05-14T00:56:25.280Z,54.36
2019-05-14T00:58:52.335Z,54.69
2019-05-14T01:01:21.346Z,54.77
2019-05-14T01:03:47.072Z,54.84
2019-05-14T01:06:13.459Z,53.98
2019-05-14T01:08:41.347Z,54.04
2019-05-14T01:11:08.242Z,53.77
2019-05-14T01:13:34.568Z,54.34
2019-05-14T01:16:01.590Z,54.75
2019-05-14T01:18:28.254Z,54.38
2019-05-14T01:20:55.716Z,54.29
2019-05-14T01:23:22.063Z,53.86
2019-05-14T01:25:48.600Z,54.33
2019-05-14T01:28:14.928Z,54.81
2019-05-14T01:30:41.325Z,54.34
2019-05-14T01:33:07.653Z,54.66
2019-05-14T01:35:34.184Z,54.54
2019-05-14T01:38:02.743Z,54.74
2019-05-14T01:40:31.253Z,54.81
2019-05-14T01:42:57.377Z,54.98
2019-05-14T01:45:27.948Z,55.44
2019-05-14T01:47:52.161Z,55.77
2019-05-14T01:50:21.567Z,56.20
2019-05-14T01:52:47.915Z,56.72
2019-05-14T01:55:14.465Z,57.64
2019-05-14T01:57:42.547Z,57.53
2019-05-14T02:00:11.470Z,58.31
2019-05-14T02:02:38.799Z,59.51
2019-05-14T02:05:05.543Z,59.05
2019-05-14T02:07:31.895Z,58.85
2019-05-14T02:09:58.257Z,59.58
2019-05-14T02:12:24.928Z,59.67
2019-05-14T02:14:51.428Z,59.71
2019-05-14T02:17:18.097Z,59.36
2019-05-14T02:19:44.432Z,59.62
2019-05-14T02:22:11.315Z,59.44
2019-05-14T02:24:37.853Z,60.27
2019-05-14T02:27:04.192Z,60.00
2019-05-14T02:29:32.038Z,59.93
2019-05-14T02:31:59.027Z,60.66
2019-05-14T02:34:25.792Z,60.92
2019-05-14T02:36:52.156Z,61.19
2019-05-14T02:39:19.620Z,59.81
2019-05-14T02:41:49.633Z,59.95
2019-05-14T02:44:14.454Z,59.82
2019-05-14T02:46:40.912Z,60.44
2019-05-14T02:49:10.155Z,59.50
2019-05-14T02:51:35.448Z,59.46
2019-05-14T02:54:01.865Z,59.37
2019-05-14T02:56:29.537Z,59.26
2019-05-14T02:59:00.450Z,59.43
2019-05-14T03:01:30.165Z,60.02
2019-05-14T03:03:55.813Z,59.98
2019-05-14T03:06:22.214Z,59.81
2019-05-14T03:08:49.377Z,60.54
2019-05-14T03:11:16.070Z,60.54
2019-05-14T03:13:42.424Z,60.49
2019-05-14T03:16:22.239Z,60.78
2019-05-14T03:18:39.593Z,60.73
2019-05-14T03:21:05.562Z,60.57
2019-05-14T03:23:33.008Z,60.82
2019-05-14T03:26:00.492Z,60.65
2019-05-14T03:28:30.366Z,60.87
2019-05-14T03:31:01.928Z,61.52
2019-05-14T03:33:24.035Z,60.92
2019-05-14T03:35:58.841Z,60.28
2019-05-14T03:38:19.675Z,60.21
2019-05-14T03:40:49.368Z,60.42
2019-05-14T03:43:15.611Z,59.97
2019-05-14T03:45:41.988Z,60.04
2019-05-14T03:48:10.287Z,59.76
2019-05-14T03:50:38.925Z,60.16
2019-05-14T03:53:05.010Z,60.35
2019-05-14T03:55:31.332Z,59.81
2019-05-14T03:57:59.528Z,59.52
2019-05-14T04:00:49.998Z,58.93
2019-05-14T04:03:19.475Z,59.86
2019-05-14T04:05:49.267Z,59.48
2019-05-14T04:08:17.130Z,59.29
2019-05-14T04:10:50.656Z,58.69
2019-05-14T04:13:14.958Z,58.00
2019-05-14T04:15:44.314Z,58.16
2019-05-14T04:18:12.344Z,57.52
2019-05-14T04:20:39.488Z,57.36
2019-05-14T04:23:09.066Z,57.53
2019-05-14T04:25:35.157Z,57.07
2019-05-14T04:28:03.191Z,57.37
2019-05-14T04:30:31.624Z,56.74
2019-05-14T04:33:00.988Z,56.80
2019-05-14T04:35:29.629Z,56.57
2019-05-14T04:37:58.699Z,56.22
2019-05-14T04:40:23.899Z,55.84
2019-05-14T04:42:50.631Z,55.33
2019-05-14T04:45:19.658Z,55.85
2019-05-14T04:47:45.475Z,56.10
2019-05-14T04:50:11.889Z,55.69
2019-05-14T04:52:40.216Z,54.94
2019-05-14T04:55:09.859Z,55.01
2019-05-14T04:57:38.360Z,54.59
2019-05-14T05:00:04.458Z,54.22
2019-05-14T05:02:30.837Z,54.29
2019-05-14T05:04:59.406Z,53.67
2019-05-14T05:07:25.666Z,53.79
2019-05-14T05:09:51.991Z,53.92
2019-05-14T05:12:19.778Z,53.81
2019-05-14T05:14:49.061Z,54.08
2019-05-14T05:17:15.194Z,54.03
2019-05-14T05:19:45.332Z,53.05
2019-05-14T05:22:10.179Z,53.03
2019-05-14T05:24:38.133Z,53.35
2019-05-14T05:27:04.781Z,53.26
2019-05-14T05:29:31.158Z,53.28
2019-05-14T05:31:59.292Z,52.03
2019-05-14T05:34:28.142Z,52.15
2019-05-14T05:36:54.078Z,52.47
2019-05-14T05:39:20.437Z,52.46
2019-05-14T05:41:49.173Z,52.76
2019-05-14T05:44:15.334Z,52.76
2019-05-14T05:46:43.304Z,51.70
2019-05-14T05:49:09.787Z,50.72
2019-05-14T05:51:36.180Z,50.52
2019-05-14T05:54:02.615Z,51.89
2019-05-14T05:56:29.031Z,51.92
2019-05-14T05:58:55.776Z,50.96
2019-05-14T06:01:37.619Z,50.10
2019-05-14T06:03:51.782Z,49.76
2019-05-14T06:06:19.241Z,50.45
2019-05-14T06:08:48.880Z,48.94
2019-05-14T06:11:14.506Z,48.63
2019-05-14T06:13:41.978Z,48.43
2019-05-14T06:16:09.507Z,47.94
2019-05-14T06:18:39.349Z,47.42
2019-05-14T06:21:05.938Z,46.65
2019-05-14T06:23:33.898Z,46.94
2019-05-14T06:26:01.163Z,47.07
2019-05-14T06:28:32.501Z,47.27
2019-05-14T06:31:01.925Z,47.25
2019-05-14T06:33:28.760Z,46.49
2019-05-14T06:35:55.460Z,46.56
2019-05-14T06:38:22.237Z,46.20
2019-05-14T06:40:49.136Z,46.04
2019-05-14T06:43:15.617Z,45.94
2019-05-14T06:45:41.969Z,45.99
2019-05-14T06:48:08.794Z,45.21
2019-05-14T06:50:35.363Z,45.15
2019-05-14T06:53:02.101Z,44.88
2019-05-14T06:55:28.529Z,44.86
2019-05-14T06:57:54.843Z,44.78
2019-05-14T07:00:21.683Z,44.68
2019-05-14T07:02:49.067Z,43.67
2019-05-14T07:05:15.879Z,42.38
2019-05-14T07:07:42.216Z,42.38
2019-05-14T07:10:19.652Z,42.22
2019-05-14T07:12:46.683Z,42.53
2019-05-14T07:15:13.665Z,41.11
2019-05-14T07:17:40.013Z,40.59
2019-05-14T07:20:08.901Z,41.07
2019-05-14T07:22:35.647Z,39.45
2019-05-14T07:25:05.244Z,39.90
2019-05-14T07:27:31.653Z,39.97
2019-05-14T07:30:05.252Z,40.38
2019-05-14T07:32:32.693Z,40.28
2019-05-14T07:34:59.571Z,40.45
2019-05-14T07:37:28.446Z,41.94
2019-05-14T07:39:54.915Z,41.90
2019-05-14T07:42:21.349Z,42.51
2019-05-14T07:44:48.553Z,42.35
2019-05-14T07:47:15.187Z,40.79
2019-05-14T07:49:41.863Z,40.68
2019-05-14T07:52:09.440Z,41.84
2019-05-14T07:54:35.977Z,40.12
2019-05-14T07:57:02.317Z,39.21
2019-05-14T07:59:28.917Z,39.16
2019-05-14T08:01:55.436Z,38.95
2019-05-14T08:04:21.775Z,39.31
2019-05-14T08:06:48.778Z,40.11
2019-05-14T08:09:15.274Z,40.81
2019-05-14T08:11:41.652Z,40.53
2019-05-14T08:14:09.066Z,40.88
2019-05-14T08:16:38.157Z,40.26
2019-05-14T08:19:09.126Z,40.26
2019-05-14T08:21:34.180Z,40.34
2019-05-14T08:24:00.585Z,39.24
2019-05-14T08:26:28.763Z,39.20
2019-05-14T08:28:55.286Z,38.88
2019-05-14T08:31:21.612Z,39.33
2019-05-14T08:33:48.924Z,39.44
2019-05-14T08:36:18.182Z,39.36
2019-05-14T08:38:45.401Z,39.54
2019-05-14T08:41:12.063Z,39.08
2019-05-14T08:43:39.764Z,39.51
2019-05-14T08:46:08.217Z,40.13
2019-05-14T08:48:34.707Z,41.16
2019-05-14T08:51:01.021Z,41.55
2019-05-14T08:53:29.064Z,41.08
2019-05-14T08:55:55.520Z,40.48
2019-05-14T08:58:21.912Z,39.63
2019-05-14T09:00:48.524Z,37.89
2019-05-14T09:03:19.272Z,37.24
2019-05-14T09:05:45.990Z,38.21
2019-05-14T09:08:12.360Z,37.35
2019-05-14T09:10:40.300Z,37.48
2019-05-14T09:13:08.641Z,37.47
2019-05-14T09:15:35.104Z,38.11
2019-05-14T09:18:03.526Z,37.39
2019-05-14T09:20:29.712Z,36.53
2019-05-14T09:22:56.146Z,34.57
2019-05-14T09:25:22.524Z,34.86
2019-05-14T09:27:49.411Z,36.18
2019-05-14T09:30:23.937Z,35.12
2019-05-14T09:32:59.354Z,34.47
2019-05-14T09:35:29.051Z,34.70
2019-05-14T09:37:59.227Z,35.62
2019-05-14T09:40:25.526Z,36.00
2019-05-14T09:42:51.856Z,35.22
2019-05-14T09:45:19.239Z,34.18
2019-05-14T09:47:50.329Z,35.85
2019-05-14T09:50:18.604Z,36.31
2019-05-14T09:52:42.757Z,39.80
2019-05-14T09:55:09.707Z,37.86
2019-05-14T09:57:38.616Z,36.63
2019-05-14T10:00:09.104Z,36.91
2019-05-14T10:02:39.009Z,35.79
2019-05-14T10:05:04.784Z,34.88
2019-05-14T10:07:33.033Z,34.66
2019-05-14T10:09:59.450Z,34.10
2019-05-14T10:12:25.813Z,35.15
2019-05-14T10:14:53.244Z,34.06
2019-05-14T10:17:19.710Z,33.74
2019-05-14T10:19:46.088Z,32.80
2019-05-14T10:22:12.409Z,33.41
2019-05-14T10:24:38.951Z,33.13
2019-05-14T10:27:05.352Z,32.93
2019-05-14T10:29:31.900Z,34.33
2019-05-14T10:31:59.230Z,34.52
2019-05-14T10:34:28.762Z,34.73
2019-05-14T10:36:55.084Z,36.47
2019-05-14T10:39:21.553Z,36.36
2019-05-14T10:41:49.322Z,36.46
2019-05-14T10:44:18.521Z,36.90
2019-05-14T10:46:44.446Z,37.30
2019-05-14T10:49:19.440Z,36.10
2019-05-14T10:51:39.121Z,34.95
2019-05-14T10:54:21.006Z,35.03
2019-05-14T10:56:38.988Z,34.69
2019-05-14T10:59:05.312Z,36.04
2019-05-14T11:01:31.644Z,37.42
2019-05-14T11:04:11.457Z,39.16
2019-05-14T11:06:38.795Z,38.98
2019-05-14T11:09:08.842Z,37.79
2019-05-14T11:11:34.334Z,35.26
2019-05-14T11:14:00.677Z,33.89
2019-05-14T11:16:28.348Z,32.92
2019-05-14T11:18:57.389Z,33.55
2019-05-14T11:21:26.846Z,33.26
2019-05-14T11:23:51.491Z,33.32
2019-05-14T11:26:18.598Z,33.55
2019-05-14T11:28:45.594Z,36.04
2019-05-14T11:31:12.150Z,41.38
2019-05-14T11:33:41.753Z,52.13
2019-05-14T11:36:09.309Z,55.28
2019-05-14T11:38:37.433Z,55.72
2019-05-14T11:41:09.611Z,53.63
2019-05-14T11:43:39.704Z,49.89
2019-05-14T11:46:09.016Z,46.22
2019-05-14T11:48:38.942Z,40.43
2019-05-14T11:51:09.069Z,40.79
2019-05-14T11:53:38.574Z,36.80
2019-05-14T11:56:08.611Z,34.56
2019-05-14T11:58:39.420Z,31.36
2019-05-14T12:01:09.231Z,33.69
2019-05-14T12:03:39.024Z,33.44
2019-05-14T12:06:05.234Z,34.53
2019-05-14T12:08:31.963Z,29.90
2019-05-14T12:10:59.389Z,29.08
2019-05-14T12:13:29.856Z,28.61
2019-05-14T12:15:55.740Z,31.96
2019-05-14T12:18:22.252Z,36.11
2019-05-14T12:20:49.851Z,39.66
2019-05-14T12:23:18.991Z,45.72
2019-05-14T12:25:45.156Z,51.65
2019-05-14T12:28:13.651Z,56.13
2019-05-14T12:30:40.663Z,60.40
2019-05-14T12:33:07.612Z,61.03
2019-05-14T12:35:34.361Z,60.13
2019-05-14T12:38:01.095Z,59.28
2019-05-14T12:40:28.937Z,57.31
2019-05-14T12:42:58.609Z,54.80
2019-05-14T12:45:25.130Z,52.96
2019-05-14T12:47:51.912Z,49.04
2019-05-14T12:50:19.122Z,46.72
2019-05-14T12:52:48.273Z,45.54
2019-05-14T12:55:30.445Z,45.43
2019-05-14T12:58:02.060Z,44.95
2019-05-14T13:00:28.757Z,45.52
2019-05-14T13:02:55.349Z,46.23
2019-05-14T13:05:22.800Z,46.89
2019-05-14T13:07:51.151Z,45.98
2019-05-14T13:10:19.762Z,47.05
2019-05-14T13:12:48.394Z,48.01
2019-05-14T13:15:16.124Z,50.34
2019-05-14T13:17:42.835Z,52.43
2019-05-14T13:20:18.720Z,52.42
2019-05-14T13:22:50.079Z,53.33
2019-05-14T13:25:15.422Z,53.44
2019-05-14T13:27:41.882Z,51.85
2019-05-14T13:30:09.225Z,52.44
2019-05-14T13:32:39.070Z,53.32
2019-05-14T13:35:09.561Z,53.04
2019-05-14T13:37:34.908Z,52.66
2019-05-14T13:40:05.178Z,53.85
2019-05-14T13:42:32.587Z,53.40
2019-05-14T13:44:58.985Z,54.36
2019-05-14T13:47:25.420Z,52.27
2019-05-14T13:49:51.824Z,51.16
2019-05-14T13:52:18.839Z,48.17
2019-05-14T13:54:46.143Z,47.54
2019-05-14T13:57:12.516Z,46.75
2019-05-14T13:59:44.005Z,46.90
2019-05-14T14:02:09.855Z,45.57
2019-05-14T14:04:38.195Z,45.16
2019-05-14T14:07:05.249Z,43.59
2019-05-14T14:09:34.677Z,42.81
2019-05-14T14:12:01.220Z,44.21
2019-05-14T14:14:29.141Z,45.23
2019-05-14T14:16:58.151Z,45.55
2019-05-14T14:19:24.269Z,47.32
2019-05-14T14:21:51.896Z,47.87
2019-05-14T14:24:19.744Z,46.92
2019-05-14T14:26:48.936Z,46.95
2019-05-14T14:29:15.098Z,46.82
2019-05-14T14:31:41.885Z,46.45
2019-05-14T14:34:09.318Z,46.76
2019-05-14T14:36:38.438Z,46.77
2019-05-14T14:39:05.770Z,46.60
2019-05-14T14:41:32.163Z,47.62
2019-05-14T14:43:58.542Z,48.77
2019-05-14T14:46:25.098Z,49.19
2019-05-14T14:48:51.400Z,47.04
2019-05-14T14:51:19.246Z,47.93
2019-05-14T14:53:58.424Z,48.03
2019-05-14T14:56:15.790Z,47.43
2019-05-14T14:58:42.597Z,49.18
2019-05-14T15:01:09.740Z,48.32
2019-05-14T15:03:41.565Z,47.66
2019-05-14T15:06:09.583Z,46.63
2019-05-14T15:08:38.910Z,46.41
2019-05-14T15:11:08.300Z,44.52
2019-05-14T15:13:33.922Z,44.42
2019-05-14T15:16:01.063Z,44.32
2019-05-14T15:18:28.843Z,43.65
2019-05-14T15:20:55.647Z,43.03
2019-05-14T15:23:24.197Z,43.54
2019-05-14T15:25:52.496Z,42.56
2019-05-14T15:28:19.097Z,42.94
2019-05-14T15:30:45.667Z,41.73
2019-05-14T15:33:12.031Z,41.16
2019-05-14T15:35:38.430Z,38.98
2019-05-14T15:38:04.860Z,37.25
2019-05-14T15:40:31.578Z,36.09
2019-05-14T15:43:01.614Z,36.62
2019-05-14T15:45:28.667Z,37.59
2019-05-14T15:47:58.455Z,37.77
2019-05-14T15:50:23.515Z,37.48
2019-05-14T15:52:50.037Z,37.43
2019-05-14T15:55:18.336Z,35.87
2019-05-14T15:57:45.046Z,36.52
2019-05-14T16:00:12.400Z,32.46
2019-05-14T16:02:39.706Z,32.03
2019-05-14T16:05:09.720Z,33.33
2019-05-14T16:07:35.285Z,32.97
2019-05-14T16:10:01.831Z,32.15
2019-05-14T16:12:32.256Z,30.63
2019-05-14T16:14:57.555Z,28.80
2019-05-14T16:17:26.223Z,29.59
2019-05-14T16:19:52.261Z,29.12
2019-05-14T16:22:19.461Z,30.02
2019-05-14T16:24:56.426Z,30.34
2019-05-14T16:27:14.344Z,30.10
2019-05-14T16:29:45.450Z,30.94
2019-05-14T16:32:10.301Z,30.41
2019-05-14T16:34:41.038Z,31.41
2019-05-14T16:37:11.017Z,31.37
2019-05-14T16:39:36.272Z,30.62
2019-05-14T16:42:02.738Z,30.98
2019-05-14T16:44:31.034Z,27.96
2019-05-14T16:46:58.623Z,27.60
2019-05-14T16:49:25.371Z,27.32
2019-05-14T16:51:51.846Z,26.80
2019-05-14T16:54:18.421Z,27.77
2019-05-14T16:56:45.094Z,22.81
2019-05-14T16:59:11.676Z,19.53
2019-05-14T17:01:38.029Z,16.02
2019-05-14T17:04:05.161Z,14.61
2019-05-14T17:06:34.719Z,15.95
2019-05-14T17:09:00.403Z,15.38
2019-05-14T17:11:29.147Z,13.69
2019-05-14T17:13:58.009Z,14.03
2019-05-14T17:16:28.911Z,12.82
2019-05-14T17:18:55.210Z,13.02
2019-05-14T17:21:23.098Z,13.02
2019-05-14T17:23:58.349Z,13.49
2019-05-14T17:26:28.774Z,16.08
2019-05-14T17:28:59.461Z,16.52
2019-05-14T17:31:26.412Z,16.97
2019-05-14T17:33:54.176Z,16.19
2019-05-14T17:36:28.241Z,15.49
2019-05-14T17:38:54.627Z,16.07
2019-05-14T17:41:21.186Z,16.05
2019-05-14T17:43:49.344Z,15.80
2019-05-14T17:46:18.411Z,16.26
2019-05-14T17:48:45.073Z,16.57
2019-05-14T17:51:11.571Z,16.25
2019-05-14T17:53:38.749Z,17.09
2019-05-14T17:56:05.390Z,17.92
2019-05-14T17:58:31.856Z,18.18
2019-05-14T18:00:58.431Z,20.58
2019-05-14T18:03:25.249Z,23.41
2019-05-14T18:05:51.709Z,25.28
2019-05-14T18:08:18.621Z,26.67
2019-05-14T18:10:49.714Z,28.40
2019-05-14T18:13:18.169Z,28.26
2019-05-14T18:15:45.178Z,28.59
2019-05-14T18:18:12.229Z,29.75
2019-05-14T18:20:39.642Z,29.94
2019-05-14T18:23:11.488Z,30.95
2019-05-14T18:25:34.982Z,31.51
2019-05-14T18:28:02.344Z,31.78
2019-05-14T18:30:29.122Z,32.46
2019-05-14T18:32:58.274Z,32.91
2019-05-14T18:35:24.703Z,33.50
2019-05-14T18:37:51.105Z,34.16
2019-05-14T18:40:18.330Z,34.19
2019-05-14T18:42:44.905Z,34.42
2019-05-14T18:45:11.903Z,34.98
2019-05-14T18:47:39.909Z,35.82
2019-05-14T18:50:09.045Z,36.09
2019-05-14T18:52:35.866Z,36.07
2019-05-14T18:55:04.951Z,36.65
2019-05-14T18:57:31.474Z,36.87
2019-05-14T18:59:58.807Z,36.84
2019-05-14T19:02:26.467Z,37.12
2019-05-14T19:04:52.922Z,37.55
2019-05-14T19:07:19.294Z,37.88
2019-05-14T19:09:46.059Z,38.13
2019-05-14T19:12:12.459Z,38.40
2019-05-14T19:14:39.203Z,38.76
2019-05-14T19:17:05.704Z,39.03
2019-05-14T19:19:32.102Z,39.08
2019-05-14T19:21:58.740Z,39.24
2019-05-14T19:24:25.483Z,39.13
2019-05-14T19:26:51.849Z,39.90
2019-05-14T19:29:18.521Z,40.29
2019-05-14T19:31:45.495Z,40.12
2019-05-14T19:34:11.963Z,40.25
2019-05-14T19:36:40.190Z,40.70
2019-05-14T19:39:08.621Z,40.96
2019-05-14T19:41:35.007Z,41.18
2019-05-14T19:44:01.727Z,41.59
2019-05-14T19:46:29.111Z,41.84
2019-05-14T19:48:55.895Z,42.08
2019-05-14T19:51:22.473Z,42.24
2019-05-14T19:53:52.309Z,42.33
2019-05-14T19:56:18.173Z,42.41
2019-05-14T19:58:44.633Z,42.85
2019-05-14T20:01:11.029Z,43.03
2019-05-14T20:03:39.066Z,42.88
2019-05-14T20:06:05.394Z,43.15
2019-05-14T20:08:32.935Z,43.67
2019-05-14T20:10:59.626Z,43.52
2019-05-14T20:13:28.572Z,43.67
2019-05-14T20:15:55.461Z,44.09
2019-05-14T20:18:21.880Z,43.81
2019-05-14T20:20:49.271Z,44.12
2019-05-14T20:23:15.786Z,44.52
2019-05-14T20:25:42.488Z,44.56
2019-05-14T20:28:08.862Z,44.66
2019-05-14T20:30:38.570Z,44.67
2019-05-14T20:33:04.560Z,44.53
2019-05-14T20:35:34.879Z,44.76
2019-05-14T20:38:02.398Z,45.12
2019-05-14T20:40:28.816Z,44.95
2019-05-14T20:42:55.365Z,45.27
2019-05-14T20:45:22.528Z,46.02
2019-05-14T20:47:49.196Z,46.22
2019-05-14T20:50:18.124Z,46.61
2019-05-14T20:52:44.290Z,46.21
2019-05-14T20:55:11.082Z,46.70
2019-05-14T20:57:38.591Z,47.34
2019-05-14T21:00:07.680Z,46.76
2019-05-14T21:02:34.235Z,47.24
2019-05-14T21:05:04.273Z,47.19
2019-05-14T21:07:29.268Z,47.16
2019-05-14T21:09:55.723Z,47.05
2019-05-14T21:12:23.487Z,46.47
2019-05-14T21:14:49.852Z,46.74
2019-05-14T21:17:19.135Z,47.27
2019-05-14T21:19:49.247Z,47.63
2019-05-14T21:22:15.806Z,47.80
2019-05-14T21:24:42.194Z,47.60
2019-05-14T21:27:09.421Z,48.08
2019-05-14T21:29:38.287Z,48.26
2019-05-14T21:32:04.282Z,48.13
2019-05-14T21:34:31.122Z,48.45
2019-05-14T21:36:58.506Z,48.64
2019-05-14T21:39:26.003Z,48.61
2019-05-14T21:41:52.368Z,48.34
2019-05-14T21:44:18.888Z,48.55
2019-05-14T21:46:48.239Z,49.37
2019-05-14T21:49:14.713Z,49.09
2019-05-14T21:51:41.184Z,49.47
2019-05-14T21:54:09.485Z,49.39
2019-05-14T21:56:38.452Z,49.50
2019-05-14T21:59:04.131Z,49.59
2019-05-14T22:01:31.011Z,50.04
2019-05-14T22:03:59.294Z,50.23
2019-05-14T22:06:28.949Z,50.54
2019-05-14T22:08:55.164Z,50.22
2019-05-14T22:11:21.575Z,50.69
2019-05-14T22:13:49.594Z,50.65
2019-05-14T22:16:16.286Z,51.04
2019-05-14T22:18:43.008Z,50.60
2019-05-14T22:21:09.330Z,50.89
2019-05-14T22:23:38.527Z,51.04
2019-05-14T22:26:04.252Z,50.76
2019-05-14T22:28:30.582Z,50.60
2019-05-14T22:30:58.724Z,50.40
2019-05-14T22:33:25.175Z,50.69
2019-05-14T22:35:51.527Z,50.29
2019-05-14T22:38:20.236Z,50.03
2019-05-14T22:40:48.155Z,49.83
2019-05-14T22:43:14.469Z,49.63
2019-05-14T22:45:40.821Z,48.81
2019-05-14T22:48:09.394Z,48.89
2019-05-14T22:50:35.455Z,48.62
2019-05-14T22:53:01.778Z,48.47
2019-05-14T22:55:28.989Z,47.83
2019-05-14T22:57:59.373Z,47.65
2019-05-14T23:00:25.355Z,47.62
2019-05-14T23:02:51.692Z,47.91
2019-05-14T23:05:19.219Z,47.44
2019-05-14T23:07:45.797Z,46.99
2019-05-14T23:10:12.555Z,47.48
2019-05-14T23:12:38.899Z,48.03
2019-05-14T23:15:06.266Z,47.19
2019-05-14T23:17:32.653Z,47.19
2019-05-14T23:19:58.987Z,46.52
2019-05-14T23:22:25.334Z,46.09
2019-05-14T23:24:51.676Z,46.18
2019-05-14T23:27:18.865Z,46.20
2019-05-14T23:29:45.353Z,45.76
2019-05-14T23:32:11.700Z,46.63
2019-05-14T23:34:38.187Z,46.61
2019-05-14T23:37:04.558Z,46.54
2019-05-14T23:39:31.194Z,47.28
2019-05-14T23:41:58.297Z,47.15
2019-05-14T23:44:25.162Z,47.22
2019-05-14T23:46:51.541Z,46.81
2019-05-14T23:49:18.476Z,46.90
2019-05-14T23:51:44.879Z,46.17
2019-05-14T23:54:11.256Z,46.43
2019-05-14T23:56:38.464Z,46.86
2019-05-14T23:59:05.015Z,45.75
